Time;durP1;ratioP1;P1;durP2;ratioP2;P2;SDS_P1;SDS_P2;PMS_P1;PMS_P2;Temp;Humidity;BMP_temperature;BMP_pressure;BME280_temperature;BME280_humidity;BME280_pressure;Samples;Min_cycle;Max_cycle;Signal;HPM_P1;HPM_P2
2021/11/03 00:01:54;;;;;;;;;;;4.00;1.00;;;;;;5009599;28;19909;-72
2021/11/03 00:04:19;;;;;;;;;;;3.90;1.00;;;;;;5010860;28;19917;-74
2021/11/03 00:06:45;;;;;;;;;;;3.80;1.00;;;;;;5010194;28;20385;-74
2021/11/03 00:09:10;;;;;;;;;;;3.80;1.00;;;;;;5010619;28;19940;-75
2021/11/03 00:11:37;;;;;;;;;;;3.70;1.00;;;;;;5010157;28;20009;-75
2021/11/03 00:14:03;;;;;;;;;;;3.70;1.00;;;;;;5010129;28;19910;-75
2021/11/03 00:16:29;;;;;;;;;;;3.60;1.00;;;;;;5002064;28;20396;-75
2021/11/03 00:18:54;;;;;;;;;;;3.60;1.00;;;;;;5004686;28;19913;-75
2021/11/03 00:21:20;;;;;;;;;;;3.60;1.00;;;;;;4999556;28;20426;-74
2021/11/03 00:23:46;;;;;;;;;;;3.50;1.00;;;;;;4999924;28;19935;-76
2021/11/03 00:26:11;;;;;;;;;;;3.50;1.00;;;;;;5009954;28;19914;-75
2021/11/03 00:28:37;;;;;;;;;;;3.40;1.00;;;;;;4992757;28;19956;-75
2021/11/03 00:31:03;;;;;;;;;;;3.40;1.00;;;;;;5009618;28;19916;-75
2021/11/03 00:33:30;;;;;;;;;;;3.40;1.00;;;;;;5009128;28;19929;-74
2021/11/03 00:35:55;;;;;;;;;;;3.40;1.00;;;;;;5010061;28;20001;-75
2021/11/03 00:38:21;;;;;;;;;;;3.40;1.00;;;;;;5010415;28;20372;-75
2021/11/03 00:40:47;;;;;;;;;;;3.40;1.00;;;;;;5009448;28;19967;-75
2021/11/03 00:43:13;;;;;;;;;;;3.30;1.00;;;;;;5009209;28;20028;-75
2021/11/03 00:45:39;;;;;;;;;;;3.30;1.00;;;;;;5009503;28;20032;-74
2021/11/03 00:48:04;;;;;;;;;;;3.30;1.00;;;;;;5010312;28;20393;-75
2021/11/03 00:50:30;;;;;;;;;;;3.30;1.00;;;;;;5065761;22;19925;-75
2021/11/03 00:52:56;;;;;;;;;;;3.40;1.00;;;;;;5049088;28;19913;-76
2021/11/03 00:55:21;;;;;;;;;;;3.30;1.00;;;;;;5048410;28;19917;-75
2021/11/03 00:57:47;;;;;;;;;;;3.30;1.00;;;;;;5049741;28;20332;-75
2021/11/03 01:00:14;;;;;;;;;;;3.30;1.00;;;;;;5048925;28;19947;-75
2021/11/03 01:02:39;;;;;;;;;;;3.30;1.00;;;;;;5048629;28;19931;-76
2021/11/03 01:05:07;;;;;;;;;;;3.30;1.00;;;;;;5030914;28;19988;-76
2021/11/03 01:07:32;;;;;;;;;;;3.30;1.00;;;;;;5049204;28;19932;-75
2021/11/03 01:09:58;;;;;;;;;;;3.40;1.00;;;;;;5048672;28;20046;-76
2021/11/03 01:12:23;;;;;;;;;;;3.40;1.00;;;;;;5048338;28;20262;-77
2021/11/03 01:14:49;;;;;;;;;;;3.50;1.00;;;;;;5049465;28;19909;-75
2021/11/03 01:17:14;;;;;;;;;;;3.60;1.00;;;;;;5049137;28;20320;-75
2021/11/03 01:19:40;;;;;;;;;;;3.60;1.00;;;;;;5048648;28;20369;-76
2021/11/03 01:22:05;;;;;;;;;;;3.70;1.00;;;;;;5048775;28;20007;-78
2021/11/03 01:24:31;;;;;;;;;;;3.70;1.00;;;;;;5059328;28;19974;-75
2021/11/03 01:26:56;;;;;;;;;;;3.70;1.00;;;;;;5048994;28;19978;-75
2021/11/03 01:29:22;;;;;;;;;;;3.60;1.00;;;;;;5049404;28;20220;-76
2021/11/03 01:31:49;;;;;;;;;;;3.50;1.00;;;;;;5047558;28;20012;-76
2021/11/03 01:34:14;;;;;;;;;;;3.50;1.00;;;;;;5049456;28;19993;-77
2021/11/03 01:36:40;;;;;;;;;;;3.50;1.00;;;;;;5048347;28;20266;-76
2021/11/03 01:39:07;;;;;;;;;;;3.50;1.00;;;;;;5049229;28;19998;-76
2021/11/03 01:41:33;;;;;;;;;;;3.50;1.00;;;;;;5058800;28;19917;-77
2021/11/03 01:44:01;;;;;;;;;;;3.60;1.00;;;;;;5050372;28;19962;-75
2021/11/03 01:46:27;;;;;;;;;;;3.70;1.00;;;;;;5068677;28;20389;-78
2021/11/03 01:48:54;;;;;;;;;;;3.70;1.00;;;;;;5068743;28;20012;-77
2021/11/03 01:51:46;;;;;;;;;;;3.70;1.00;;;;;;5068415;28;19916;-76
2021/11/03 01:54:14;;;;;;;;;;;3.80;1.00;;;;;;5029908;28;19920;-75
2021/11/03 01:56:40;;;;;;;;;;;3.80;1.00;;;;;;5068273;28;19916;-76
2021/11/03 01:59:14;;;;;;;;;;;3.80;1.00;;;;;;5069057;28;20419;-75
2021/11/03 02:01:40;;;;;;;;;;;3.80;1.00;;;;;;5061092;28;20004;-76
2021/11/03 02:04:06;;;;;;;;;;;3.80;1.00;;;;;;5033992;28;19920;-75
2021/11/03 02:06:32;;;;;;;;;;;3.80;1.00;;;;;;5051811;28;19920;-76
2021/11/03 02:08:57;;;;;;;;;;;3.80;1.00;;;;;;5052348;28;19908;-77
2021/11/03 02:11:24;;;;;;;;;;;3.80;1.00;;;;;;5051573;28;20012;-76
2021/11/03 02:13:49;;;;;;;;;;;3.80;1.00;;;;;;5051630;28;19908;-75
2021/11/03 02:16:16;;;;;;;;;;;3.80;1.00;;;;;;5051885;28;19967;-78
2021/11/03 02:18:42;;;;;;;;;;;3.80;1.00;;;;;;5052623;28;19924;-76
2021/11/03 02:21:08;;;;;;;;;;;3.80;1.00;;;;;;5051762;28;19909;-75
2021/11/03 02:23:41;;;;;;;;;;;3.80;1.00;;;;;;5060878;28;20051;-76
2021/11/03 02:26:26;;;;;;;;;;;3.80;1.00;;;;;;5031214;28;20346;-76
2021/11/03 02:28:52;;;;;;;;;;;3.80;1.00;;;;;;5032250;28;19966;-76
2021/11/03 02:31:33;;;;;;;;;;;3.80;1.00;;;;;;5031411;28;20008;-76
2021/11/03 02:33:59;;;;;;;;;;;3.80;1.00;;;;;;5031507;28;19920;-76
2021/11/03 02:36:25;;;;;;;;;;;3.80;1.00;;;;;;5031356;28;19999;-76
2021/11/03 02:38:50;;;;;;;;;;;3.80;1.00;;;;;;5035263;28;19996;-76
2021/11/03 02:41:26;;;;;;;;;;;3.90;1.00;;;;;;5033345;28;19986;-75
2021/11/03 02:44:08;;;;;;;;;;;3.90;1.00;;;;;;5051486;28;20280;-75
2021/11/03 02:46:34;;;;;;;;;;;4.00;1.00;;;;;;5051215;28;19971;-77
2021/11/03 02:48:59;;;;;;;;;;;4.00;1.00;;;;;;5052064;28;19948;-75
2021/11/03 02:51:28;;;;;;;;;;;4.10;1.00;;;;;;5033092;28;20430;-76
2021/11/03 02:53:55;;;;;;;;;;;4.20;1.00;;;;;;5050955;28;19909;-75
2021/11/03 02:56:23;;;;;;;;;;;4.20;1.00;;;;;;5050585;28;19908;-77
2021/11/03 02:58:49;;;;;;;;;;;4.10;1.00;;;;;;5052023;28;19916;-76
2021/11/03 03:01:19;;;;;;;;;;;4.10;1.00;;;;;;5051152;28;19935;-77
2021/11/03 03:03:45;;;;;;;;;;;4.10;1.00;;;;;;5051428;28;19909;-76
2021/11/03 03:06:14;;;;;;;;;;;4.10;1.00;;;;;;5050788;28;20302;-77
2021/11/03 03:08:40;;;;;;;;;;;4.10;1.00;;;;;;5051715;28;19913;-75
2021/11/03 03:11:05;;;;;;;;;;;4.10;1.00;;;;;;5050758;28;20199;-76
2021/11/03 03:13:32;;;;;;;;;;;4.20;1.00;;;;;;5050212;28;19998;-76
2021/11/03 03:15:58;;;;;;;;;;;4.20;1.00;;;;;;5051032;28;19913;-76
2021/11/03 03:18:23;;;;;;;;;;;4.20;1.00;;;;;;5063042;28;19995;-76
2021/11/03 03:20:49;;;;;;;;;;;4.20;1.00;;;;;;5071207;28;19909;-77
2021/11/03 03:23:14;;;;;;;;;;;4.20;1.00;;;;;;5064346;28;19920;-75
2021/11/03 03:25:40;;;;;;;;;;;4.20;1.00;;;;;;5033940;28;19917;-76
2021/11/03 03:28:06;;;;;;;;;;;4.20;1.00;;;;;;5013119;28;20311;-76
2021/11/03 03:30:32;;;;;;;;;;;4.20;1.00;;;;;;5030042;28;20055;-77
2021/11/03 03:32:58;;;;;;;;;;;4.20;1.00;;;;;;5012887;28;20691;-76
2021/11/03 03:35:23;;;;;;;;;;;4.20;1.00;;;;;;5030815;28;19963;-77
2021/11/03 03:37:52;;;;;;;;;;;4.20;1.00;;;;;;5031250;28;19924;-77
2021/11/03 03:40:18;;;;;;;;;;;4.30;1.00;;;;;;5030077;28;19971;-76
2021/11/03 03:42:44;;;;;;;;;;;4.30;1.00;;;;;;5030538;28;19909;-76
2021/11/03 03:45:09;;;;;;;;;;;4.30;1.00;;;;;;5030214;28;19913;-76
2021/11/03 03:47:35;;;;;;;;;;;4.30;1.00;;;;;;5030951;28;20469;-75
2021/11/03 03:50:00;;;;;;;;;;;4.30;1.00;;;;;;5030454;28;19948;-76
2021/11/03 03:52:26;;;;;;;;;;;4.30;1.00;;;;;;5029617;28;20000;-76
2021/11/03 03:54:51;;;;;;;;;;;4.30;1.00;;;;;;5030273;28;19913;-76
2021/11/03 03:57:17;;;;;;;;;;;4.30;1.00;;;;;;5030224;28;20159;-76
2021/11/03 03:59:42;;;;;;;;;;;4.30;1.00;;;;;;5030271;28;19914;-76
2021/11/03 04:02:08;;;;;;;;;;;4.20;1.00;;;;;;5040289;28;19962;-78
2021/11/03 04:04:33;;;;;;;;;;;4.10;1.00;;;;;;5049926;28;19916;-78
2021/11/03 04:06:59;;;;;;;;;;;4.10;1.00;;;;;;5050124;28;19913;-76
2021/11/03 04:09:24;;;;;;;;;;;4.10;1.00;;;;;;5049474;28;19913;-77
2021/11/03 04:11:50;;;;;;;;;;;4.10;1.00;;;;;;5049201;28;19999;-76
2021/11/03 04:14:15;;;;;;;;;;;4.10;1.00;;;;;;5049876;28;19909;-76
2021/11/03 04:16:41;;;;;;;;;;;4.00;1.00;;;;;;5051506;28;20269;-76
2021/11/03 04:19:06;;;;;;;;;;;4.00;1.00;;;;;;5065712;28;19909;-76
2021/11/03 04:21:32;;;;;;;;;;;4.00;1.00;;;;;;5069275;28;19909;-75
2021/11/03 04:23:58;;;;;;;;;;;4.00;1.00;;;;;;5053822;28;20281;-75
2021/11/03 04:26:34;;;;;;;;;;;4.00;1.00;;;;;;5029027;28;19917;-76
2021/11/03 04:28:59;;;;;;;;;;;4.00;1.00;;;;;;5029660;28;19913;-74
2021/11/03 04:31:25;;;;;;;;;;;4.00;1.00;;;;;;5011509;28;19936;-76
2021/11/03 04:33:51;;;;;;;;;;;4.00;1.00;;;;;;5029358;28;20266;-75
2021/11/03 04:36:20;;;;;;;;;;;4.00;1.00;;;;;;5029327;28;19909;-75
2021/11/03 04:38:47;;;;;;;;;;;4.00;1.00;;;;;;5029400;28;19909;-77
2021/11/03 04:41:13;;;;;;;;;;;4.00;1.00;;;;;;5028640;28;19909;-75
2021/11/03 04:43:39;;;;;;;;;;;3.90;1.00;;;;;;5029292;28;19916;-77
2021/11/03 04:46:05;;;;;;;;;;;3.90;1.00;;;;;;5029768;28;19935;-75
2021/11/03 04:48:30;;;;;;;;;;;3.90;1.00;;;;;;5029941;28;20003;-77
2021/11/03 04:50:56;;;;;;;;;;;3.90;1.00;;;;;;5029612;28;19939;-75
2021/11/03 04:53:22;;;;;;;;;;;3.80;1.00;;;;;;5029723;28;19909;-76
2021/11/03 04:55:47;;;;;;;;;;;3.80;1.00;;;;;;5014314;28;19909;-77
2021/11/03 04:58:13;;;;;;;;;;;3.70;1.00;;;;;;5047629;28;19897;-75
2021/11/03 05:00:39;;;;;;;;;;;3.70;1.00;;;;;;5038257;28;19920;-75
2021/11/03 05:03:05;;;;;;;;;;;3.60;1.00;;;;;;5030382;28;19940;-74
2021/11/03 05:05:30;;;;;;;;;;;3.50;1.00;;;;;;5032238;28;19967;-77
2021/11/03 05:07:56;;;;;;;;;;;3.50;1.00;;;;;;5033734;28;20340;-78
2021/11/03 05:10:22;;;;;;;;;;;3.50;1.00;;;;;;5070485;28;19908;-76
2021/11/03 05:12:47;;;;;;;;;;;3.50;1.00;;;;;;5055028;28;20347;-76
2021/11/03 05:15:13;;;;;;;;;;;3.50;1.00;;;;;;5070491;28;19919;-76
2021/11/03 05:17:38;;;;;;;;;;;3.40;1.00;;;;;;5071201;28;19909;-75
2021/11/03 05:20:04;;;;;;;;;;;3.30;1.00;;;;;;5070018;28;20341;-78
2021/11/03 05:22:30;;;;;;;;;;;3.30;1.00;;;;;;5069683;28;19916;-76
2021/11/03 05:24:56;;;;;;;;;;;3.30;1.00;;;;;;5060015;28;19909;-77
2021/11/03 05:27:22;;;;;;;;;;;3.30;1.00;;;;;;5031305;28;19962;-76
2021/11/03 05:29:47;;;;;;;;;;;3.30;1.00;;;;;;5049546;28;19909;-78
2021/11/03 05:32:13;;;;;;;;;;;3.40;1.00;;;;;;5049337;28;19916;-75
2021/11/03 05:34:38;;;;;;;;;;;3.40;1.00;;;;;;5031682;28;19916;-76
2021/11/03 05:37:04;;;;;;;;;;;3.40;1.00;;;;;;5053461;28;19944;-75
2021/11/03 05:39:30;;;;;;;;;;;3.40;1.00;;;;;;5059343;28;20230;-76
2021/11/03 05:41:56;;;;;;;;;;;3.50;1.00;;;;;;5061298;28;19917;-76
2021/11/03 05:44:21;;;;;;;;;;;3.50;1.00;;;;;;5054505;28;20208;-76
2021/11/03 05:46:52;;;;;;;;;;;3.50;1.00;;;;;;5053859;28;19913;-77
2021/11/03 05:49:19;;;;;;;;;;;3.50;1.00;;;;;;5053626;28;20050;-78
2021/11/03 05:51:46;;;;;;;;;;;3.60;1.00;;;;;;5054212;28;19924;-75
2021/11/03 05:54:12;;;;;;;;;;;3.60;1.00;;;;;;5057021;28;19909;-78
2021/11/03 05:56:38;;;;;;;;;;;3.60;1.00;;;;;;5054988;28;19912;-77
2021/11/03 05:59:04;;;;;;;;;;;3.60;1.00;;;;;;5055019;28;19909;-77
2021/11/03 06:01:30;;;;;;;;;;;3.60;1.00;;;;;;5053360;28;19944;-75
2021/11/03 06:03:55;;;;;;;;;;;3.50;1.00;;;;;;5054546;28;20067;-76
2021/11/03 06:06:22;;;;;;;;;;;3.40;1.00;;;;;;5052396;28;20000;-75
2021/11/03 06:08:48;;;;;;;;;;;3.30;1.00;;;;;;5060372;28;20042;-75
2021/11/03 06:11:14;;;;;;;;;;;3.30;1.00;;;;;;5072791;28;20007;-75
2021/11/03 06:13:41;;;;;;;;;;;3.30;1.00;;;;;;5053820;28;19915;-78
2021/11/03 06:16:06;;;;;;;;;;;3.40;1.00;;;;;;5070899;28;19908;-75
2021/11/03 06:18:32;;;;;;;;;;;3.40;1.00;;;;;;5072557;28;19909;-78
2021/11/03 06:20:57;;;;;;;;;;;3.30;1.00;;;;;;5050375;28;19913;-81
2021/11/03 06:23:23;;;;;;;;;;;3.40;1.00;;;;;;5054187;28;20027;-78
2021/11/03 06:25:48;;;;;;;;;;;3.40;1.00;;;;;;5053308;28;19921;-81
2021/11/03 06:28:14;;;;;;;;;;;3.40;1.00;;;;;;5044225;28;20410;-77
2021/11/03 06:30:39;;;;;;;;;;;3.40;1.00;;;;;;5027073;28;19999;-77
2021/11/03 06:33:06;;;;;;;;;;;3.50;1.00;;;;;;5018834;28;19917;-78
2021/11/03 06:35:32;;;;;;;;;;;3.50;1.00;;;;;;5050678;28;20307;-79
2021/11/03 06:37:58;;;;;;;;;;;3.60;1.00;;;;;;5045609;28;19910;-79
2021/11/03 06:40:25;;;;;;;;;;;3.60;1.00;;;;;;5047702;28;19971;-77
2021/11/03 06:42:51;;;;;;;;;;;3.70;1.00;;;;;;5055625;28;19952;-78
2021/11/03 06:45:18;;;;;;;;;;;3.80;1.00;;;;;;5053357;28;19951;-80
2021/11/03 06:47:44;;;;;;;;;;;4.00;1.00;;;;;;5038248;28;20027;-76
2021/11/03 06:50:13;;;;;;;;;;;4.10;1.00;;;;;;5076583;22;20645;-76
2021/11/03 06:52:39;;;;;;;;;;;4.20;1.00;;;;;;5009380;28;20016;-75
2021/11/03 06:55:05;;;;;;;;;;;4.20;1.00;;;;;;5009761;28;20495;-76
2021/11/03 06:57:31;;;;;;;;;;;4.20;1.00;;;;;;5009693;28;19996;-75
2021/11/03 06:59:57;;;;;;;;;;;4.30;1.00;;;;;;5009370;28;20341;-75
2021/11/03 07:02:22;;;;;;;;;;;4.40;1.00;;;;;;5010710;28;20009;-78
2021/11/03 07:04:48;;;;;;;;;;;4.50;1.00;;;;;;5011140;28;20036;-75
2021/11/03 07:07:14;;;;;;;;;;;4.50;1.00;;;;;;5009858;28;19924;-75
2021/11/03 07:09:39;;;;;;;;;;;4.60;1.00;;;;;;5008823;28;20428;-73
2021/11/03 07:12:05;;;;;;;;;;;4.60;1.00;;;;;;5008872;28;20044;-76
2021/11/03 07:14:30;;;;;;;;;;;4.60;1.00;;;;;;5010085;28;19917;-79
2021/11/03 07:16:56;;;;;;;;;;;4.60;1.00;;;;;;5000987;28;20342;-72
2021/11/03 07:19:22;;;;;;;;;;;4.70;1.00;;;;;;5010183;28;19956;-72
2021/11/03 07:21:47;;;;;;;;;;;4.80;1.00;;;;;;5008927;28;19968;-71
2021/11/03 07:24:13;;;;;;;;;;;4.70;1.00;;;;;;5012768;28;19918;-75
2021/11/03 07:26:42;;;;;;;;;;;4.80;1.00;;;;;;5008456;28;20366;-74
2021/11/03 07:29:09;;;;;;;;;;;4.80;1.00;;;;;;5020133;28;20312;-73
2021/11/03 07:31:34;;;;;;;;;;;4.90;1.00;;;;;;5008138;28;19956;-75
2021/11/03 07:34:00;;;;;;;;;;;5.20;1.00;;;;;;5007377;28;20308;-74
2021/11/03 07:36:25;;;;;;;;;;;5.50;1.00;;;;;;5010275;28;19914;-73
2021/11/03 07:38:51;;;;;;;;;;;5.60;1.00;;;;;;5010131;28;20454;-75
2021/11/03 07:41:17;;;;;;;;;;;5.50;1.00;;;;;;4991396;28;19939;-75
2021/11/03 07:43:43;;;;;;;;;;;5.30;1.00;;;;;;5009857;28;19913;-74
2021/11/03 07:46:09;;;;;;;;;;;5.10;1.00;;;;;;5009290;28;19921;-75
2021/11/03 07:48:34;;;;;;;;;;;4.90;1.00;;;;;;5010491;28;19913;-75
2021/11/03 07:51:02;;;;;;;;;;;4.90;1.00;;;;;;5009217;28;19941;-74
2021/11/03 07:53:27;;;;;;;;;;;5.00;1.00;;;;;;5010583;28;20278;-73
2021/11/03 07:55:54;;;;;;;;;;;5.20;1.00;;;;;;5009184;28;19917;-75
2021/11/03 07:58:21;;;;;;;;;;;5.30;1.00;;;;;;5009357;28;19928;-73
2021/11/03 08:00:47;;;;;;;;;;;5.30;1.00;;;;;;5008207;28;19913;-76
2021/11/03 08:03:13;;;;;;;;;;;5.50;1.00;;;;;;5008519;28;19920;-75
2021/11/03 08:05:38;;;;;;;;;;;5.60;1.00;;;;;;5009185;28;20371;-75
2021/11/03 08:08:10;;;;;;;;;;;5.80;1.00;;;;;;5011714;28;19921;-75
2021/11/03 08:10:36;;;;;;;;;;;6.00;99.90;;;;;;5009336;28;19917;-75
2021/11/03 08:13:03;;;;;;;;;;;6.20;99.90;;;;;;4993040;28;19920;-76
2021/11/03 08:15:29;;;;;;;;;;;6.30;1.00;;;;;;5010638;28;19929;-75
2021/11/03 08:17:56;;;;;;;;;;;6.30;1.00;;;;;;5012389;28;19913;-75
2021/11/03 08:20:23;;;;;;;;;;;6.20;1.00;;;;;;5018076;28;19975;-73
2021/11/03 08:22:49;;;;;;;;;;;6.20;1.00;;;;;;5022603;28;20007;-74
2021/11/03 08:25:15;;;;;;;;;;;6.30;1.00;;;;;;5018553;28;20346;-74
2021/11/03 08:27:40;;;;;;;;;;;6.30;1.00;;;;;;5013981;28;20385;-76
2021/11/03 08:30:07;;;;;;;;;;;6.50;1.00;;;;;;5010528;28;20009;-74
2021/11/03 08:32:35;;;;;;;;;;;6.50;1.00;;;;;;5014332;28;20346;-74
2021/11/03 08:35:01;;;;;;;;;;;6.80;54.70;;;;;;5014574;28;19949;-75
2021/11/03 08:37:30;;;;;;;;;;;6.80;99.90;;;;;;5011103;28;19914;-76
2021/11/03 08:39:57;;;;;;;;;;;6.80;1.00;;;;;;5015856;28;20004;-76
2021/11/03 08:42:23;;;;;;;;;;;7.00;1.00;;;;;;5023477;28;19917;-76
2021/11/03 08:44:50;;;;;;;;;;;7.30;1.00;;;;;;5013929;28;20250;-76
2021/11/03 08:47:15;;;;;;;;;;;7.20;1.00;;;;;;4991557;28;19917;-75
2021/11/03 08:49:41;;;;;;;;;;;7.30;1.00;;;;;;5009455;28;19975;-75
2021/11/03 08:52:07;;;;;;;;;;;7.20;99.90;;;;;;5008434;28;19921;-76
2021/11/03 08:54:33;;;;;;;;;;;7.10;1.00;;;;;;5008748;28;19913;-76
2021/11/03 08:56:59;;;;;;;;;;;6.80;1.00;;;;;;5009599;28;20004;-75
2021/11/03 08:59:25;;;;;;;;;;;6.80;99.90;;;;;;5009323;28;20000;-74
2021/11/03 09:01:50;;;;;;;;;;;7.10;1.00;;;;;;5008378;28;20041;-76
2021/11/03 09:04:16;;;;;;;;;;;7.30;1.00;;;;;;5009564;28;19913;-74
2021/11/03 09:06:42;;;;;;;;;;;7.40;99.90;;;;;;4991586;28;19921;-76
2021/11/03 09:09:07;;;;;;;;;;;7.40;99.90;;;;;;5010854;28;20297;-76
2021/11/03 09:11:33;;;;;;;;;;;7.50;99.90;;;;;;5009033;28;19967;-76
2021/11/03 09:13:58;;;;;;;;;;;7.90;1.00;;;;;;5009449;28;19922;-75
2021/11/03 09:16:25;;;;;;;;;;;7.90;1.00;;;;;;5009197;28;20433;-76
2021/11/03 09:18:50;;;;;;;;;;;8.20;99.90;;;;;;5010703;28;19925;-76
2021/11/03 09:21:16;;;;;;;;;;;8.50;85.30;;;;;;5009776;28;19920;-76
2021/11/03 09:23:43;;;;;;;;;;;8.80;1.00;;;;;;4992750;28;20381;-75
2021/11/03 09:26:08;;;;;;;;;;;9.20;1.00;;;;;;5009393;28;20011;-74
2021/11/03 09:28:37;;;;;;;;;;;9.60;99.90;;;;;;5007072;28;19940;-74
2021/11/03 09:31:04;;;;;;;;;;;10.20;1.00;;;;;;5008442;28;20339;-74
2021/11/03 09:33:30;;;;;;;;;;;10.40;1.00;;;;;;5008154;28;19925;-73
2021/11/03 09:35:56;;;;;;;;;;;10.50;1.00;;;;;;5007637;28;20004;-73
2021/11/03 09:38:23;;;;;;;;;;;10.70;1.00;;;;;;4990149;28;20040;-72
2021/11/03 09:40:54;;;;;;;;;;;10.80;1.00;;;;;;5006613;28;19913;-74
2021/11/03 09:43:23;;;;;;;;;;;13.10;1.00;;;;;;5007030;28;19920;-72
2021/11/03 09:45:48;;;;;;;;;;;17.30;99.90;;;;;;5006808;28;19924;-74
2021/11/03 09:48:22;;;;;;;;;;;16.80;99.90;;;;;;5007329;28;19913;-72
2021/11/03 09:50:49;;;;;;;;;;;17.40;99.90;;;;;;5000867;28;19924;-72
2021/11/03 09:53:17;;;;;;;;;;;17.90;99.90;;;;;;5006804;28;19913;-74
2021/11/03 09:55:43;;;;;;;;;;;19.30;99.90;;;;;;5007788;28;20403;-74
2021/11/03 09:58:09;;;;;;;;;;;20.10;99.90;;;;;;5009044;28;19972;-73
2021/11/03 10:00:42;;;;;;;;;;;20.40;99.90;;;;;;5008275;28;19917;-73
2021/11/03 10:03:24;;;;;;;;;;;22.10;99.90;;;;;;5005935;28;20031;-72
2021/11/03 10:06:09;;;;;;;;;;;22.90;99.90;;;;;;5007282;28;19925;-74
2021/11/03 10:08:40;;;;;;;;;;;22.40;99.90;;;;;;5008187;28;19925;-74
2021/11/03 10:11:27;;;;;;;;;;;20.70;99.90;;;;;;5007105;28;19963;-74
2021/11/03 10:13:53;;;;;;;;;;;18.70;99.90;;;;;;5000662;28;19956;-73
2021/11/03 10:16:19;;;;;;;;;;;17.50;99.90;;;;;;5007694;28;19918;-74
2021/11/03 10:18:54;;;;;;;;;;;17.60;99.90;;;;;;4991004;28;19925;-74
2021/11/03 10:21:21;;;;;;;;;;;17.20;99.90;;;;;;5007671;28;19941;-74
2021/11/03 10:23:50;;;;;;;;;;;17.30;99.90;;;;;;5011790;28;19913;-74
2021/11/03 10:26:16;;;;;;;;;;;17.20;99.90;;;;;;5010937;28;19917;-74
2021/11/03 10:28:43;;;;;;;;;;;17.00;99.90;;;;;;4994862;28;19913;-74
2021/11/03 10:31:23;;;;;;;;;;;16.90;99.90;;;;;;5011396;28;19968;-72
2021/11/03 10:33:57;;;;;;;;;;;17.00;99.90;;;;;;5005001;28;19992;-74
2021/11/03 10:36:23;;;;;;;;;;;17.30;99.90;;;;;;4993846;28;19971;-75
2021/11/03 10:38:56;;;;;;;;;;;17.40;99.90;;;;;;5012205;28;19920;-73
2021/11/03 10:41:28;;;;;;;;;;;16.80;99.90;;;;;;5024453;28;19914;-74
2021/11/03 10:43:59;;;;;;;;;;;16.10;99.90;;;;;;5012751;28;19918;-74
2021/11/03 10:46:29;;;;;;;;;;;15.40;99.90;;;;;;5010936;28;20028;-73
2021/11/03 10:49:16;;;;;;;;;;;14.70;99.90;;;;;;4994085;28;19937;-74
2021/11/03 10:51:42;;;;;;;;;;;14.10;99.90;;;;;;5010724;28;20012;-74
2021/11/03 10:54:17;;;;;;;;;;;13.30;99.90;;;;;;5011639;28;19968;-74
2021/11/03 10:56:49;;;;;;;;;;;12.70;99.90;;;;;;5011311;28;20017;-74
2021/11/03 10:59:17;;;;;;;;;;;12.00;99.90;;;;;;5009087;28;20342;-73
2021/11/03 11:01:46;;;;;;;;;;;11.60;99.90;;;;;;5012332;28;19937;-75
2021/11/03 11:04:30;;;;;;;;;;;11.40;99.90;;;;;;5011263;28;19993;-74
2021/11/03 11:07:02;;;;;;;;;;;11.00;99.90;;;;;;5011944;28;20032;-73
2021/11/03 11:09:42;;;;;;;;;;;10.80;99.90;;;;;;5010442;28;20103;-74
2021/11/03 11:12:13;;;;;;;;;;;10.70;99.90;;;;;;5011381;28;19925;-75
2021/11/03 11:14:40;;;;;;;;;;;10.80;99.90;;;;;;5004874;28;19929;-75
2021/11/03 11:17:14;;;;;;;;;;;10.90;99.90;;;;;;5012164;28;19914;-75
2021/11/03 11:20:05;;;;;;;;;;;11.10;99.90;;;;;;5004657;28;19917;-75
2021/11/03 11:22:53;;;;;;;;;;;11.30;99.90;;;;;;5003412;28;19924;-76
2021/11/03 11:25:25;;;;;;;;;;;11.30;99.90;;;;;;5009897;28;19955;-75
2021/11/03 11:28:12;;;;;;;;;;;11.30;99.90;;;;;;5013223;28;20263;-75
2021/11/03 11:30:42;;;;;;;;;;;11.40;99.90;;;;;;5011814;28;19921;-76
2021/11/03 11:33:08;;;;;;;;;;;11.60;99.90;;;;;;5004102;28;20000;-76
2021/11/03 11:35:40;;;;;;;;;;;11.70;99.90;;;;;;5011908;28;20004;-75
2021/11/03 11:38:07;;;;;;;;;;;12.00;99.90;;;;;;5004389;28;19924;-75
2021/11/03 11:40:35;;;;;;;;;;;12.60;99.90;;;;;;5010384;28;20119;-76
2021/11/03 11:43:22;;;;;;;;;;;13.30;99.90;;;;;;5010937;28;19963;-75
2021/11/03 11:45:48;;;;;;;;;;;13.70;99.90;;;;;;5010100;28;20027;-74
2021/11/03 11:48:18;;;;;;;;;;;13.70;99.90;;;;;;5010436;28;19913;-75
2021/11/03 11:50:45;;;;;;;;;;;13.00;99.90;;;;;;4992702;28;20437;-75
2021/11/03 11:53:21;;;;;;;;;;;12.50;99.90;;;;;;5010942;28;19918;-75
2021/11/03 11:56:05;;;;;;;;;;;12.20;99.90;;;;;;4992559;28;19973;-75
2021/11/03 11:58:33;;;;;;;;;;;11.90;99.90;;;;;;5006813;28;19964;-75
2021/11/03 12:01:08;;;;;;;;;;;11.70;99.90;;;;;;5010508;28;19972;-76
2021/11/03 12:03:33;;;;;;;;;;;11.50;99.90;;;;;;5010414;28;19909;-73
2021/11/03 12:06:04;;;;;;;;;;;11.40;99.90;;;;;;5010421;28;19925;-75
2021/11/03 12:08:50;;;;;;;;;;;11.30;99.90;;;;;;5011081;28;20329;-75
2021/11/03 12:11:20;;;;;;;;;;;11.20;99.90;;;;;;5009731;28;19913;-75
2021/11/03 12:13:46;;;;;;;;;;;11.10;99.90;;;;;;5009664;28;19917;-75
2021/11/03 12:16:11;;;;;;;;;;;10.70;99.90;;;;;;5014795;28;20370;-76
2021/11/03 12:18:37;;;;;;;;;;;10.60;99.90;;;;;;5019939;28;19918;-76
2021/11/03 12:21:02;;;;;;;;;;;10.50;1.00;;;;;;5011198;28;20358;-75
2021/11/03 12:23:51;;;;;;;;;;;10.40;1.00;;;;;;4995404;28;19917;-75
2021/11/03 12:26:25;;;;;;;;;;;10.40;1.00;;;;;;5006526;28;19917;-75
2021/11/03 12:28:54;;;;;;;;;;;10.10;1.00;;;;;;5005559;28;19921;-75
2021/11/03 12:31:21;;;;;;;;;;;9.90;1.00;;;;;;5002588;28;19917;-75
2021/11/03 12:34:02;;;;;;;;;;;9.90;1.00;;;;;;5010178;28;19933;-72
2021/11/03 12:36:29;;;;;;;;;;;10.00;1.00;;;;;;5009449;28;19922;-76
2021/11/03 12:38:56;;;;;;;;;;;10.00;1.00;;;;;;5007670;28;19921;-74
2021/11/03 12:41:26;;;;;;;;;;;10.00;1.00;;;;;;5009659;28;19924;-76
2021/11/03 12:43:56;;;;;;;;;;;10.00;1.00;;;;;;5009999;28;19913;-76
2021/11/03 12:46:22;;;;;;;;;;;9.90;1.00;;;;;;4991133;28;19976;-75
2021/11/03 12:48:48;;;;;;;;;;;9.80;1.00;;;;;;5009805;28;19965;-76
2021/11/03 12:51:20;;;;;;;;;;;9.70;99.90;;;;;;5009773;28;20364;-74
2021/11/03 12:53:47;;;;;;;;;;;9.70;99.90;;;;;;5003546;28;19914;-74
2021/11/03 12:56:14;;;;;;;;;;;9.70;92.30;;;;;;5009163;28;19913;-74
2021/11/03 12:58:44;;;;;;;;;;;9.70;99.90;;;;;;5010059;28;19917;-74
2021/11/03 13:01:21;;;;;;;;;;;9.70;99.90;;;;;;4990600;28;20298;-73
2021/11/03 13:03:53;;;;;;;;;;;9.70;99.90;;;;;;5009511;28;20569;-73
2021/11/03 13:06:20;;;;;;;;;;;9.70;99.90;;;;;;5008990;28;20397;-74
2021/11/03 13:08:46;;;;;;;;;;;9.70;99.90;;;;;;5010325;28;20275;-72
2021/11/03 13:11:20;;;;;;;;;;;9.70;99.90;;;;;;5008690;28;19971;-73
2021/11/03 13:13:53;;;;;;;;;;;9.70;99.90;;;;;;5008698;28;19917;-74
2021/11/03 13:16:30;;;;;;;;;;;9.80;99.90;;;;;;5008618;28;20279;-73
2021/11/03 13:18:56;;;;;;;;;;;9.80;99.90;;;;;;5009257;28;20570;-73
2021/11/03 13:21:21;;;;;;;;;;;9.70;1.00;;;;;;5008810;28;19937;-73
2021/11/03 13:23:48;;;;;;;;;;;9.60;1.00;;;;;;5015729;28;19918;-73
2021/11/03 13:26:19;;;;;;;;;;;9.60;1.00;;;;;;5007969;28;19929;-73
2021/11/03 13:28:46;;;;;;;;;;;9.60;1.00;;;;;;5001556;28;19914;-74
2021/11/03 13:31:30;;;;;;;;;;;9.60;1.00;;;;;;5008764;28;20008;-73
2021/11/03 13:33:57;;;;;;;;;;;9.60;1.00;;;;;;5008611;28;20353;-74
2021/11/03 13:36:25;;;;;;;;;;;9.60;1.00;;;;;;5007161;28;19932;-74
2021/11/03 13:38:52;;;;;;;;;;;9.70;1.00;;;;;;5007897;28;19921;-74
2021/11/03 13:41:32;;;;;;;;;;;9.60;1.00;;;;;;5016503;28;19976;-74
2021/11/03 13:44:15;;;;;;;;;;;9.60;1.00;;;;;;5000741;28;20355;-74
2021/11/03 13:46:42;;;;;;;;;;;9.60;1.00;;;;;;5008054;28;19925;-73
2021/11/03 13:49:12;;;;;;;;;;;9.50;1.00;;;;;;5008707;28;20015;-72
2021/11/03 13:51:40;;;;;;;;;;;9.40;22.80;;;;;;5008088;28;19980;-72
2021/11/03 13:54:26;;;;;;;;;;;9.40;7.10;;;;;;5008387;28;19920;-73
2021/11/03 13:56:53;;;;;;;;;;;9.30;65.40;;;;;;5010453;28;19921;-74
2021/11/03 13:59:32;;;;;;;;;;;9.30;99.90;;;;;;5013357;28;19936;-74
2021/11/03 14:02:00;;;;;;;;;;;9.20;99.90;;;;;;5011683;28;19944;-74
2021/11/03 14:04:40;;;;;;;;;;;9.20;1.00;;;;;;5012963;28;19966;-74
2021/11/03 14:07:26;;;;;;;;;;;9.10;1.00;;;;;;5013068;28;19974;-74
2021/11/03 14:09:52;;;;;;;;;;;9.20;1.00;;;;;;5011106;28;20342;-73
2021/11/03 14:12:19;;;;;;;;;;;9.10;1.00;;;;;;5012219;28;20000;-74
2021/11/03 14:14:45;;;;;;;;;;;9.20;99.90;;;;;;5010675;28;19928;-74
2021/11/03 14:17:23;;;;;;;;;;;9.20;99.90;;;;;;5013519;28;20331;-74
2021/11/03 14:19:51;;;;;;;;;;;9.20;99.90;;;;;;5013047;28;20047;-74
2021/11/03 14:22:19;;;;;;;;;;;9.30;4.70;;;;;;5011977;28;19913;-75
2021/11/03 14:24:45;;;;;;;;;;;9.20;99.90;;;;;;5014740;28;19917;-74
2021/11/03 14:27:11;;;;;;;;;;;9.30;1.00;;;;;;5012807;28;19929;-74
2021/11/03 14:29:37;;;;;;;;;;;9.30;83.20;;;;;;5012788;28;20742;-74
2021/11/03 14:32:03;;;;;;;;;;;9.20;99.90;;;;;;5011699;28;20357;-75
2021/11/03 14:34:31;;;;;;;;;;;9.20;99.90;;;;;;5011830;28;19917;-74
2021/11/03 14:36:57;;;;;;;;;;;9.10;1.00;;;;;;5011950;28;20378;-75
2021/11/03 14:39:27;;;;;;;;;;;9.10;1.00;;;;;;5011188;28;20306;-75
2021/11/03 14:41:53;;;;;;;;;;;9.20;1.00;;;;;;4992894;28;19913;-75